sensor_id;sensor_type;location;lat;lon;timestamp;pressure;altitude;pressure_sealevel;temperature;humidity
1652;BME280;823;49.028;8.454;2023-01-04T00:00:24;101691.44;;;9.62;57.46
1652;BME280;823;49.028;8.454;2023-01-04T00:05:24;101694.81;;;9.67;57.43
1652;BME280;823;49.028;8.454;2023-01-04T00:10:25;101703.44;;;9.68;57.10
1652;BME280;823;49.028;8.454;2023-01-04T00:15:25;101700.88;;;9.65;57.45
1652;BME280;823;49.028;8.454;2023-01-04T00:20:25;101703.53;;;9.57;57.46
1652;BME280;823;49.028;8.454;2023-01-04T00:25:26;101701.94;;;9.41;57.52
1652;BME280;823;49.028;8.454;2023-01-04T00:30:26;101688.16;;;9.37;57.42
1652;BME280;823;49.028;8.454;2023-01-04T00:35:26;101683.00;;;9.35;57.31
1652;BME280;823;49.028;8.454;2023-01-04T00:40:27;101683.94;;;9.28;57.26
1652;BME280;823;49.028;8.454;2023-01-04T00:45:27;101678.00;;;9.17;57.84
1652;BME280;823;49.028;8.454;2023-01-04T00:50:27;101664.28;;;9.09;57.50
1652;BME280;823;49.028;8.454;2023-01-04T00:55:29;101667.75;;;8.98;57.66
1652;BME280;823;49.028;8.454;2023-01-04T01:00:29;101676.38;;;9.00;57.43
1652;BME280;823;49.028;8.454;2023-01-04T01:05:29;101665.22;;;8.95;57.43
1652;BME280;823;49.028;8.454;2023-01-04T01:10:33;101661.88;;;8.78;57.81
1652;BME280;823;49.028;8.454;2023-01-04T01:15:33;101664.47;;;8.78;57.74
1652;BME280;823;49.028;8.454;2023-01-04T01:20:34;101663.59;;;8.74;57.83
1652;BME280;823;49.028;8.454;2023-01-04T01:25:34;101680.81;;;8.75;58.09
1652;BME280;823;49.028;8.454;2023-01-04T01:30:38;101681.69;;;8.69;58.10
1652;BME280;823;49.028;8.454;2023-01-04T01:35:39;101673.13;;;8.58;57.97
1652;BME280;823;49.028;8.454;2023-01-04T01:40:43;101671.41;;;8.54;58.15
1652;BME280;823;49.028;8.454;2023-01-04T01:45:46;101673.16;;;8.40;58.63
1652;BME280;823;49.028;8.454;2023-01-04T01:51:02;101668.03;;;8.37;58.30
1652;BME280;823;49.028;8.454;2023-01-04T01:56:05;101668.03;;;8.33;58.67
1652;BME280;823;49.028;8.454;2023-01-04T02:01:06;101661.19;;;8.20;58.29
1652;BME280;823;49.028;8.454;2023-01-04T02:06:11;101654.34;;;8.16;57.98
1652;BME280;823;49.028;8.454;2023-01-04T02:11:11;101656.94;;;8.04;58.76
1652;BME280;823;49.028;8.454;2023-01-04T02:16:49;101660.38;;;8.04;58.70
1652;BME280;823;49.028;8.454;2023-01-04T02:38:12;101619.13;;;8.21;61.98
1652;BME280;823;49.028;8.454;2023-01-04T02:48:51;101616.44;;;8.49;63.10
1652;BME280;823;49.028;8.454;2023-01-04T02:54:13;101613.66;;;8.89;62.13
1652;BME280;823;49.028;8.454;2023-01-04T03:04:52;101634.44;;;8.61;63.30
1652;BME280;823;49.028;8.454;2023-01-04T03:15:25;101632.63;;;8.79;63.05
1652;BME280;823;49.028;8.454;2023-01-04T03:20:29;101619.69;;;8.85;63.02
1652;BME280;823;49.028;8.454;2023-01-04T03:25:35;101595.50;;;8.98;62.79
1652;BME280;823;49.028;8.454;2023-01-04T03:31:01;101597.13;;;9.15;62.48
1652;BME280;823;49.028;8.454;2023-01-04T03:36:42;101585.94;;;9.14;62.21
1652;BME280;823;49.028;8.454;2023-01-04T03:42:07;101584.13;;;9.26;62.13
1652;BME280;823;49.028;8.454;2023-01-04T03:47:50;101584.19;;;9.21;62.08
1652;BME280;823;49.028;8.454;2023-01-04T03:53:11;101574.69;;;9.23;61.89
1652;BME280;823;49.028;8.454;2023-01-04T03:58:13;101555.75;;;9.24;61.93
1652;BME280;823;49.028;8.454;2023-01-04T04:03:13;101549.75;;;9.19;62.04
1652;BME280;823;49.028;8.454;2023-01-04T04:08:14;101549.75;;;9.19;61.92
1652;BME280;823;49.028;8.454;2023-01-04T04:13:29;101529.94;;;9.24;61.79
1652;BME280;823;49.028;8.454;2023-01-04T04:18:29;101516.28;;;9.13;62.29
1652;BME280;823;49.028;8.454;2023-01-04T04:23:29;101513.69;;;9.13;61.97
1652;BME280;823;49.028;8.454;2023-01-04T04:28:30;101504.28;;;9.07;62.23
1652;BME280;823;49.028;8.454;2023-01-04T04:33:30;101513.63;;;9.17;62.06
1652;BME280;823;49.028;8.454;2023-01-04T04:38:30;101505.88;;;9.17;62.05
1652;BME280;823;49.028;8.454;2023-01-04T04:43:32;101500.78;;;9.13;62.13
1652;BME280;823;49.028;8.454;2023-01-04T04:48:32;101493.03;;;9.14;62.15
1652;BME280;823;49.028;8.454;2023-01-04T04:53:32;101491.16;;;9.27;61.76
1652;BME280;823;49.028;8.454;2023-01-04T04:58:33;101492.00;;;9.32;61.43
1652;BME280;823;49.028;8.454;2023-01-04T05:03:34;101490.31;;;9.28;61.29
1652;BME280;823;49.028;8.454;2023-01-04T05:08:34;101487.56;;;9.44;60.97
1652;BME280;823;49.028;8.454;2023-01-04T05:13:35;101482.34;;;9.48;60.73
1652;BME280;823;49.028;8.454;2023-01-04T05:18:35;101483.06;;;9.61;60.16
1652;BME280;823;49.028;8.454;2023-01-04T05:23:35;101488.38;;;9.49;60.50
1652;BME280;823;49.028;8.454;2023-01-04T05:28:36;101484.63;;;9.75;59.55
1652;BME280;823;49.028;8.454;2023-01-04T05:33:36;101482.22;;;9.59;60.11
1652;BME280;823;49.028;8.454;2023-01-04T05:38:36;101472.63;;;9.70;59.50
1652;BME280;823;49.028;8.454;2023-01-04T05:43:37;101465.88;;;9.59;59.85
1652;BME280;823;49.028;8.454;2023-01-04T05:48:37;101463.16;;;9.71;59.30
1652;BME280;823;49.028;8.454;2023-01-04T05:53:37;101462.28;;;9.70;59.19
1652;BME280;823;49.028;8.454;2023-01-04T05:58:37;101465.63;;;9.79;58.85
1652;BME280;823;49.028;8.454;2023-01-04T06:03:38;101467.34;;;9.80;58.48
1652;BME280;823;49.028;8.454;2023-01-04T06:08:39;101460.44;;;9.82;58.24
1652;BME280;823;49.028;8.454;2023-01-04T06:13:40;101444.13;;;9.77;58.42
1652;BME280;823;49.028;8.454;2023-01-04T06:18:40;101446.69;;;9.80;58.17
1652;BME280;823;49.028;8.454;2023-01-04T06:23:40;101448.41;;;9.79;58.34
1652;BME280;823;49.028;8.454;2023-01-04T06:28:40;101434.59;;;9.82;59.47
1652;BME280;823;49.028;8.454;2023-01-04T06:33:41;101424.84;;;10.02;59.07
1652;BME280;823;49.028;8.454;2023-01-04T06:38:41;101428.81;;;10.25;58.44
1652;BME280;823;49.028;8.454;2023-01-04T06:43:41;101429.09;;;10.07;58.50
1652;BME280;823;49.028;8.454;2023-01-04T06:48:42;101423.66;;;10.25;57.99
1652;BME280;823;49.028;8.454;2023-01-04T06:53:42;101415.44;;;10.56;56.97
1652;BME280;823;49.028;8.454;2023-01-04T06:58:42;101405.28;;;10.44;56.93
1652;BME280;823;49.028;8.454;2023-01-04T07:03:42;101404.69;;;10.79;55.74
1652;BME280;823;49.028;8.454;2023-01-04T07:08:43;101406.91;;;10.99;55.39
1652;BME280;823;49.028;8.454;2023-01-04T07:13:43;101406.97;;;10.96;55.06
1652;BME280;823;49.028;8.454;2023-01-04T07:18:43;101405.81;;;11.13;54.64
1652;BME280;823;49.028;8.454;2023-01-04T07:23:44;101396.34;;;11.12;54.83
1652;BME280;823;49.028;8.454;2023-01-04T07:28:44;101386.78;;;11.15;54.38
1652;BME280;823;49.028;8.454;2023-01-04T07:34:03;101387.00;;;11.03;54.84
1652;BME280;823;49.028;8.454;2023-01-04T07:39:03;101373.94;;;11.11;54.61
1652;BME280;823;49.028;8.454;2023-01-04T07:44:05;101385.34;;;11.00;54.97
1652;BME280;823;49.028;8.454;2023-01-04T07:49:12;101366.47;;;10.95;54.99
1652;BME280;823;49.028;8.454;2023-01-04T07:54:13;101360.22;;;11.05;54.62
1652;BME280;823;49.028;8.454;2023-01-04T07:59:15;101359.72;;;11.30;53.92
1652;BME280;823;49.028;8.454;2023-01-04T08:04:16;101360.75;;;11.23;53.96
1652;BME280;823;49.028;8.454;2023-01-04T08:09:17;101347.66;;;11.29;53.90
1652;BME280;823;49.028;8.454;2023-01-04T08:14:17;101340.97;;;11.19;53.88
1652;BME280;823;49.028;8.454;2023-01-04T08:19:19;101332.38;;;11.17;54.01
1652;BME280;823;49.028;8.454;2023-01-04T08:24:20;101316.47;;;11.35;53.37
1652;BME280;823;49.028;8.454;2023-01-04T08:29:20;101320.41;;;11.52;52.67
1652;BME280;823;49.028;8.454;2023-01-04T08:34:21;101329.53;;;11.68;52.24
1652;BME280;823;49.028;8.454;2023-01-04T08:39:21;101310.59;;;11.66;52.35
1652;BME280;823;49.028;8.454;2023-01-04T08:44:23;101317.25;;;11.76;51.66
1652;BME280;823;49.028;8.454;2023-01-04T08:49:24;101319.84;;;11.76;52.05
1652;BME280;823;49.028;8.454;2023-01-04T08:54:24;101321.66;;;11.74;52.58
1652;BME280;823;49.028;8.454;2023-01-04T08:59:24;101302.88;;;11.65;52.08
1652;BME280;823;49.028;8.454;2023-01-04T09:04:25;101295.81;;;12.09;51.26
1652;BME280;823;49.028;8.454;2023-01-04T09:09:25;101315.72;;;12.07;51.27
1652;BME280;823;49.028;8.454;2023-01-04T09:14:25;101305.91;;;12.20;50.97
1652;BME280;823;49.028;8.454;2023-01-04T09:19:26;101308.13;;;12.35;50.45
1652;BME280;823;49.028;8.454;2023-01-04T09:24:26;101308.91;;;12.37;50.07
1652;BME280;823;49.028;8.454;2023-01-04T09:29:26;101306.09;;;12.47;50.37
1652;BME280;823;49.028;8.454;2023-01-04T09:34:26;101299.75;;;12.24;50.68
1652;BME280;823;49.028;8.454;2023-01-04T09:39:27;101303.47;;;12.14;50.84
1652;BME280;823;49.028;8.454;2023-01-04T09:44:55;101290.19;;;12.59;49.90
1652;BME280;823;49.028;8.454;2023-01-04T09:50:11;101293.97;;;12.47;50.54
1652;BME280;823;49.028;8.454;2023-01-04T09:55:18;101282.22;;;12.34;50.87
1652;BME280;823;49.028;8.454;2023-01-04T10:00:26;101288.06;;;12.40;50.92
1652;BME280;823;49.028;8.454;2023-01-04T10:05:30;101278.66;;;12.38;50.76
1652;BME280;823;49.028;8.454;2023-01-04T10:26:41;101237.28;;;12.65;50.10
1652;BME280;823;49.028;8.454;2023-01-04T10:31:51;101226.28;;;12.86;49.40
1652;BME280;823;49.028;8.454;2023-01-04T10:36:57;101225.19;;;12.64;49.94
1652;BME280;823;49.028;8.454;2023-01-04T10:42:08;101213.59;;;12.75;49.54
1652;BME280;823;49.028;8.454;2023-01-04T10:47:48;101220.06;;;12.92;49.07
1652;BME280;823;49.028;8.454;2023-01-04T10:52:58;101218.28;;;12.92;49.50
1652;BME280;823;49.028;8.454;2023-01-04T10:58:07;101217.63;;;12.86;49.72
1652;BME280;823;49.028;8.454;2023-01-04T11:03:17;101215.75;;;12.91;49.74
1652;BME280;823;49.028;8.454;2023-01-04T11:08:22;101211.81;;;12.77;49.91
1652;BME280;823;49.028;8.454;2023-01-04T11:13:25;101224.16;;;12.99;49.62
1652;BME280;823;49.028;8.454;2023-01-04T11:18:25;101213.72;;;13.01;49.82
1652;BME280;823;49.028;8.454;2023-01-04T11:23:25;101224.16;;;12.99;49.98
1652;BME280;823;49.028;8.454;2023-01-04T11:28:40;101218.25;;;12.94;50.50
1652;BME280;823;49.028;8.454;2023-01-04T11:33:57;101202.91;;;12.86;50.36
1652;BME280;823;49.028;8.454;2023-01-04T11:38:58;101199.53;;;12.83;50.85
1652;BME280;823;49.028;8.454;2023-01-04T11:44:02;101199.91;;;13.00;50.50
1652;BME280;823;49.028;8.454;2023-01-04T11:49:03;101205.91;;;12.72;50.93
1652;BME280;823;49.028;8.454;2023-01-04T11:54:09;101200.31;;;13.15;50.06
1652;BME280;823;49.028;8.454;2023-01-04T11:59:16;101197.94;;;13.08;50.41
1652;BME280;823;49.028;8.454;2023-01-04T12:04:26;101207.44;;;13.08;50.40
1652;BME280;823;49.028;8.454;2023-01-04T12:09:28;101191.97;;;12.75;51.62
1652;BME280;823;49.028;8.454;2023-01-04T12:14:31;101189.31;;;12.76;52.00
1652;BME280;823;49.028;8.454;2023-01-04T12:19:35;101181.53;;;12.78;52.13
1652;BME280;823;49.028;8.454;2023-01-04T12:24:44;101160.31;;;13.20;51.14
1652;BME280;823;49.028;8.454;2023-01-04T12:29:56;101138.19;;;13.08;51.63
1652;BME280;823;49.028;8.454;2023-01-04T12:34:57;101142.09;;;13.22;51.07
1652;BME280;823;49.028;8.454;2023-01-04T12:39:57;101122.41;;;13.15;51.02
1652;BME280;823;49.028;8.454;2023-01-04T12:44:59;101120.34;;;13.53;50.33
1652;BME280;823;49.028;8.454;2023-01-04T12:50:06;101119.53;;;13.51;50.58
1652;BME280;823;49.028;8.454;2023-01-04T13:05:55;101105.53;;;13.55;51.11
1652;BME280;823;49.028;8.454;2023-01-04T13:11:00;101107.34;;;13.53;50.84
1652;BME280;823;49.028;8.454;2023-01-04T13:16:29;101116.44;;;13.39;51.17
1652;BME280;823;49.028;8.454;2023-01-04T13:21:39;101097.44;;;13.10;51.98
1652;BME280;823;49.028;8.454;2023-01-04T13:26:42;101097.44;;;13.37;51.22
1652;BME280;823;49.028;8.454;2023-01-04T13:31:56;101091.72;;;13.26;51.75
1652;BME280;823;49.028;8.454;2023-01-04T13:37:05;101090.75;;;13.57;50.92
1652;BME280;823;49.028;8.454;2023-01-04T13:42:35;101090.25;;;13.19;51.82
1652;BME280;823;49.028;8.454;2023-01-04T13:47:38;101080.84;;;13.41;51.46
1652;BME280;823;49.028;8.454;2023-01-04T13:52:43;101076.47;;;13.43;51.51
1652;BME280;823;49.028;8.454;2023-01-04T13:57:56;101068.09;;;13.35;51.63
1652;BME280;823;49.028;8.454;2023-01-04T14:03:12;101064.84;;;13.27;52.39
1652;BME280;823;49.028;8.454;2023-01-04T14:08:17;101059.41;;;13.35;52.13
1652;BME280;823;49.028;8.454;2023-01-04T14:13:19;101056.28;;;12.98;53.15
1652;BME280;823;49.028;8.454;2023-01-04T14:18:25;101051.09;;;13.23;52.54
1652;BME280;823;49.028;8.454;2023-01-04T14:23:33;101058.72;;;13.03;53.04
1652;BME280;823;49.028;8.454;2023-01-04T14:28:36;101056.00;;;12.79;53.73
1652;BME280;823;49.028;8.454;2023-01-04T14:33:41;101067.06;;;13.39;52.22
1652;BME280;823;49.028;8.454;2023-01-04T14:49:08;101047.63;;;13.24;52.84
1652;BME280;823;49.028;8.454;2023-01-04T14:54:11;101039.22;;;13.43;52.25
1652;BME280;823;49.028;8.454;2023-01-04T14:59:12;101042.00;;;13.11;53.36
1652;BME280;823;49.028;8.454;2023-01-04T15:04:12;101035.91;;;13.39;52.68
1652;BME280;823;49.028;8.454;2023-01-04T15:09:12;101031.63;;;13.62;52.12
1652;BME280;823;49.028;8.454;2023-01-04T15:14:12;101035.47;;;13.52;52.47
1652;BME280;823;49.028;8.454;2023-01-04T15:19:13;101052.78;;;13.53;52.37
1652;BME280;823;49.028;8.454;2023-01-04T15:24:13;101035.00;;;13.14;53.52
1652;BME280;823;49.028;8.454;2023-01-04T15:29:13;101031.28;;;13.21;53.42
1652;BME280;823;49.028;8.454;2023-01-04T15:34:14;101044.25;;;13.21;53.40
1652;BME280;823;49.028;8.454;2023-01-04T15:39:14;101031.03;;;13.28;53.19
1652;BME280;823;49.028;8.454;2023-01-04T15:44:14;101015.69;;;13.21;53.57
1652;BME280;823;49.028;8.454;2023-01-04T15:49:15;101011.63;;;13.40;53.17
1652;BME280;823;49.028;8.454;2023-01-04T15:54:15;101004.88;;;13.33;53.75
1652;BME280;823;49.028;8.454;2023-01-04T15:59:16;101010.22;;;13.55;53.03
1652;BME280;823;49.028;8.454;2023-01-04T16:04:17;101018.41;;;13.44;53.90
1652;BME280;823;49.028;8.454;2023-01-04T16:09:17;101018.59;;;13.38;54.19
1652;BME280;823;49.028;8.454;2023-01-04T16:14:18;101018.13;;;13.52;54.23
1652;BME280;823;49.028;8.454;2023-01-04T16:19:18;101013.22;;;13.44;54.73
1652;BME280;823;49.028;8.454;2023-01-04T16:24:18;101010.91;;;13.35;55.06
1652;BME280;823;49.028;8.454;2023-01-04T16:29:19;101003.47;;;13.24;55.42
1652;BME280;823;49.028;8.454;2023-01-04T16:34:20;101005.00;;;13.30;55.09
1652;BME280;823;49.028;8.454;2023-01-04T16:39:20;101027.91;;;13.69;54.01
1652;BME280;823;49.028;8.454;2023-01-04T16:44:20;101016.53;;;13.48;55.19
1652;BME280;823;49.028;8.454;2023-01-04T16:49:20;101018.44;;;13.43;55.81
1652;BME280;823;49.028;8.454;2023-01-04T16:54:21;101013.41;;;13.38;55.96
1652;BME280;823;49.028;8.454;2023-01-04T16:59:21;100994.72;;;13.02;57.32
1652;BME280;823;49.028;8.454;2023-01-04T17:04:21;101004.53;;;13.19;57.39
1652;BME280;823;49.028;8.454;2023-01-04T17:09:23;100999.53;;;13.39;57.35
1652;BME280;823;49.028;8.454;2023-01-04T17:14:24;101010.31;;;13.27;58.42
1652;BME280;823;49.028;8.454;2023-01-04T17:19:24;101013.44;;;13.11;58.97
1652;BME280;823;49.028;8.454;2023-01-04T17:24:25;101017.72;;;13.13;58.95
1652;BME280;823;49.028;8.454;2023-01-04T17:29:25;100998.81;;;12.82;59.63
1652;BME280;823;49.028;8.454;2023-01-04T17:34:25;101007.50;;;12.81;59.97
1652;BME280;823;49.028;8.454;2023-01-04T17:39:26;101002.03;;;13.16;59.21
1652;BME280;823;49.028;8.454;2023-01-04T17:44:29;101004.88;;;13.08;59.93
1652;BME280;823;49.028;8.454;2023-01-04T17:49:30;101002.50;;;12.75;61.26
1652;BME280;823;49.028;8.454;2023-01-04T17:54:30;100995.94;;;12.90;61.29
1652;BME280;823;49.028;8.454;2023-01-04T17:59:30;100992.91;;;12.77;61.74
1652;BME280;823;49.028;8.454;2023-01-04T18:04:31;100966.41;;;12.67;62.29
1652;BME280;823;49.028;8.454;2023-01-04T18:09:31;100979.69;;;12.58;63.01
1652;BME280;823;49.028;8.454;2023-01-04T18:14:31;100975.75;;;12.46;63.42
1652;BME280;823;49.028;8.454;2023-01-04T18:19:32;100981.88;;;12.43;63.72
1652;BME280;823;49.028;8.454;2023-01-04T18:24:32;100975.53;;;12.52;63.31
1652;BME280;823;49.028;8.454;2023-01-04T18:29:33;100988.63;;;12.49;63.40
1652;BME280;823;49.028;8.454;2023-01-04T18:34:33;100985.88;;;12.81;62.19
1652;BME280;823;49.028;8.454;2023-01-04T18:39:34;100989.13;;;12.60;63.17
1652;BME280;823;49.028;8.454;2023-01-04T18:44:34;100998.84;;;12.54;63.61
1652;BME280;823;49.028;8.454;2023-01-04T18:49:34;100993.31;;;12.65;63.53
1652;BME280;823;49.028;8.454;2023-01-04T18:54:35;101005.72;;;12.55;63.95
1652;BME280;823;49.028;8.454;2023-01-04T18:59:35;101005.13;;;12.73;63.49
1652;BME280;823;49.028;8.454;2023-01-04T19:04:36;100993.09;;;12.44;64.15
1652;BME280;823;49.028;8.454;2023-01-04T19:09:36;100983.53;;;12.46;64.28
1652;BME280;823;49.028;8.454;2023-01-04T19:14:36;100994.19;;;12.64;63.41
1652;BME280;823;49.028;8.454;2023-01-04T19:19:37;100974.81;;;12.75;62.80
1652;BME280;823;49.028;8.454;2023-01-04T19:24:37;100975.78;;;12.98;61.88
1652;BME280;823;49.028;8.454;2023-01-04T19:29:37;100987.34;;;13.15;60.83
1652;BME280;823;49.028;8.454;2023-01-04T19:34:38;100995.94;;;13.17;60.52
1652;BME280;823;49.028;8.454;2023-01-04T19:39:38;100999.84;;;13.28;60.10
1652;BME280;823;49.028;8.454;2023-01-04T19:44:38;100996.94;;;13.13;60.18
1652;BME280;823;49.028;8.454;2023-01-04T19:49:39;101011.38;;;13.21;60.10
1652;BME280;823;49.028;8.454;2023-01-04T19:54:39;101010.06;;;13.60;58.88
1652;BME280;823;49.028;8.454;2023-01-04T19:59:40;101000.88;;;13.50;58.90
1652;BME280;823;49.028;8.454;2023-01-04T20:04:40;101021.19;;;13.38;59.00
1652;BME280;823;49.028;8.454;2023-01-04T20:09:40;100983.97;;;13.63;58.07
1652;BME280;823;49.028;8.454;2023-01-04T20:14:41;100984.78;;;13.63;58.22
1652;BME280;823;49.028;8.454;2023-01-04T20:19:41;100978.19;;;13.55;57.93
1652;BME280;823;49.028;8.454;2023-01-04T20:24:41;100997.78;;;13.63;57.97
1652;BME280;823;49.028;8.454;2023-01-04T20:29:42;100999.38;;;13.91;57.13
1652;BME280;823;49.028;8.454;2023-01-04T20:34:42;101008.16;;;13.89;57.09
1652;BME280;823;49.028;8.454;2023-01-04T20:39:42;101014.25;;;13.88;57.02
1652;BME280;823;49.028;8.454;2023-01-04T20:44:42;101023.69;;;13.90;57.29
1652;BME280;823;49.028;8.454;2023-01-04T20:49:45;101024.88;;;13.82;57.43
1652;BME280;823;49.028;8.454;2023-01-04T20:54:47;101031.88;;;14.03;56.84
1652;BME280;823;49.028;8.454;2023-01-04T20:59:48;101033.72;;;14.01;57.05
1652;BME280;823;49.028;8.454;2023-01-04T21:04:48;101031.09;;;13.77;57.61
1652;BME280;823;49.028;8.454;2023-01-04T21:09:48;101026.31;;;13.65;58.03
1652;BME280;823;49.028;8.454;2023-01-04T21:14:48;101005.28;;;14.19;56.43
1652;BME280;823;49.028;8.454;2023-01-04T21:19:49;101011.47;;;14.16;56.27
1652;BME280;823;49.028;8.454;2023-01-04T21:24:49;100994.72;;;14.23;55.88
1652;BME280;823;49.028;8.454;2023-01-04T21:29:50;100993.66;;;14.29;55.96
1652;BME280;823;49.028;8.454;2023-01-04T21:34:51;100994.00;;;14.20;56.46
1652;BME280;823;49.028;8.454;2023-01-04T21:39:52;100993.81;;;14.46;55.80
1652;BME280;823;49.028;8.454;2023-01-04T21:44:52;100983.88;;;14.34;56.15
1652;BME280;823;49.028;8.454;2023-01-04T21:49:52;100968.56;;;14.04;57.17
1652;BME280;823;49.028;8.454;2023-01-04T21:54:53;100958.25;;;14.47;56.39
1652;BME280;823;49.028;8.454;2023-01-04T21:59:53;100956.84;;;14.38;56.29
1652;BME280;823;49.028;8.454;2023-01-04T22:04:53;100947.66;;;14.29;56.96
1652;BME280;823;49.028;8.454;2023-01-04T22:09:53;100925.31;;;14.46;56.39
1652;BME280;823;49.028;8.454;2023-01-04T22:14:54;100928.47;;;14.32;56.43
1652;BME280;823;49.028;8.454;2023-01-04T22:19:54;100942.03;;;14.40;56.49
1652;BME280;823;49.028;8.454;2023-01-04T22:24:54;100939.09;;;14.04;58.20
1652;BME280;823;49.028;8.454;2023-01-04T22:29:55;100927.38;;;14.38;57.41
1652;BME280;823;49.028;8.454;2023-01-04T22:34:55;100919.03;;;14.29;57.50
1652;BME280;823;49.028;8.454;2023-01-04T22:39:55;100910.91;;;14.37;57.12
1652;BME280;823;49.028;8.454;2023-01-04T22:44:55;100892.97;;;14.52;56.85
1652;BME280;823;49.028;8.454;2023-01-04T22:49:56;100901.75;;;14.49;56.77
1652;BME280;823;49.028;8.454;2023-01-04T22:54:56;100905.81;;;14.34;57.24
1652;BME280;823;49.028;8.454;2023-01-04T22:59:56;100915.09;;;14.41;57.22
1652;BME280;823;49.028;8.454;2023-01-04T23:04:57;100928.41;;;14.34;58.01
1652;BME280;823;49.028;8.454;2023-01-04T23:09:57;100935.31;;;14.35;59.32
1652;BME280;823;49.028;8.454;2023-01-04T23:14:57;100925.94;;;14.30;59.65
1652;BME280;823;49.028;8.454;2023-01-04T23:19:59;100921.22;;;13.96;60.67
1652;BME280;823;49.028;8.454;2023-01-04T23:24:59;100915.75;;;14.02;60.58
1652;BME280;823;49.028;8.454;2023-01-04T23:29:59;100914.38;;;13.93;61.14
1652;BME280;823;49.028;8.454;2023-01-04T23:35:00;100915.28;;;14.14;60.38
1652;BME280;823;49.028;8.454;2023-01-04T23:40:00;100913.22;;;14.01;61.24
1652;BME280;823;49.028;8.454;2023-01-04T23:45:00;100907.38;;;13.72;62.53
1652;BME280;823;49.028;8.454;2023-01-04T23:50:01;100897.28;;;13.64;62.79
1652;BME280;823;49.028;8.454;2023-01-04T23:55:01;100897.94;;;13.69;62.77
